createdAt,value
2023-04-05T00:00:57.174Z,82.75
2023-04-05T00:03:25.641Z,83.30
2023-04-05T00:05:54.776Z,84.45
2023-04-05T00:08:26.781Z,84.68
2023-04-05T00:10:54.725Z,84.82
2023-04-05T00:13:22.870Z,84.28
2023-04-05T00:15:50.920Z,84.67
2023-04-05T00:18:23.849Z,84.69
2023-04-05T00:20:52.687Z,85.27
2023-04-05T00:23:21.368Z,85.73
2023-04-05T00:25:49.745Z,86.20
2023-04-05T00:28:17.940Z,85.46
2023-04-05T00:30:45.909Z,85.46
2023-04-05T00:33:14.337Z,84.93
2023-04-05T00:35:43.488Z,86.10
2023-04-05T00:38:11.333Z,85.47
2023-04-05T00:40:39.426Z,84.98
2023-04-05T00:43:07.918Z,84.89
2023-04-05T00:45:36.012Z,84.53
2023-04-05T00:48:04.649Z,84.45
2023-04-05T00:50:32.893Z,84.42
2023-04-05T00:53:02.122Z,84.16
2023-04-05T00:55:30.180Z,83.44
2023-04-05T00:57:57.996Z,83.71
2023-04-05T01:00:27.467Z,83.03
2023-04-05T01:03:01.899Z,83.98
2023-04-05T01:05:38.053Z,84.55
2023-04-05T01:08:13.492Z,84.70
2023-04-05T01:10:47.078Z,85.16
2023-04-05T01:13:17.437Z,85.54
2023-04-05T01:15:45.121Z,86.27
2023-04-05T01:18:13.989Z,86.36
2023-04-05T01:20:53.655Z,86.68
2023-04-05T01:23:38.388Z,86.04
2023-04-05T01:26:44.273Z,86.09
2023-04-05T01:29:47.531Z,86.77
2023-04-05T01:32:25.251Z,86.48
2023-04-05T01:35:00.142Z,86.54
2023-04-05T01:37:32.848Z,86.66
2023-04-05T01:40:01.324Z,86.71
2023-04-05T01:42:29.181Z,87.47
2023-04-05T01:44:59.307Z,86.66
2023-04-05T01:47:28.419Z,87.05
2023-04-05T01:49:56.703Z,86.67
2023-04-05T01:52:26.966Z,87.47
2023-04-05T01:54:54.861Z,87.23
2023-04-05T01:57:22.627Z,87.80
2023-04-05T01:59:50.492Z,87.74
2023-04-05T02:02:18.487Z,87.86
2023-04-05T02:04:47.609Z,86.38
2023-04-05T02:07:16.303Z,87.76
2023-04-05T02:09:44.124Z,86.89
2023-04-05T02:12:13.778Z,87.92
2023-04-05T02:14:41.590Z,86.74
2023-04-05T02:17:09.701Z,86.87
2023-04-05T02:19:40.916Z,86.82
2023-04-05T02:22:10.375Z,86.19
2023-04-05T02:24:38.218Z,86.60
2023-04-05T02:27:07.394Z,86.46
2023-04-05T02:29:35.672Z,86.10
2023-04-05T02:32:03.786Z,85.75
2023-04-05T02:34:31.736Z,86.13
2023-04-05T02:36:59.573Z,86.21
2023-04-05T02:39:29.822Z,86.54
2023-04-05T02:41:57.770Z,87.97
2023-04-05T02:44:25.706Z,87.18
2023-04-05T02:46:54.944Z,87.56
2023-04-05T02:49:28.500Z,87.93
2023-04-05T02:51:58.556Z,87.59
2023-04-05T02:54:27.754Z,87.97
2023-04-05T02:57:02.381Z,88.08
2023-04-05T02:59:36.601Z,88.31
2023-04-05T03:02:05.997Z,87.37
2023-04-05T03:04:34.546Z,87.02
2023-04-05T03:07:04.626Z,86.86
2023-04-05T03:09:38.495Z,87.50
2023-04-05T03:12:09.396Z,87.30
2023-04-05T03:14:41.551Z,87.92
2023-04-05T03:17:14.161Z,87.95
2023-04-05T03:19:46.447Z,88.88
2023-04-05T03:22:19.092Z,87.37
2023-04-05T03:24:48.703Z,87.80
2023-04-05T03:27:18.874Z,88.16
2023-04-05T03:30:00.678Z,88.05
2023-04-05T03:32:30.280Z,87.63
2023-04-05T03:35:06.862Z,86.58
2023-04-05T03:37:36.643Z,86.89
2023-04-05T03:40:10.806Z,86.75
2023-04-05T03:42:38.797Z,87.83
2023-04-05T03:45:08.742Z,87.53
2023-04-05T03:47:37.519Z,87.31
2023-04-05T03:50:09.284Z,87.99
2023-04-05T03:52:37.172Z,87.04
2023-04-05T03:55:07.103Z,88.32
2023-04-05T03:57:39.174Z,87.79
2023-04-05T04:00:20.362Z,88.53
2023-04-05T04:03:04.145Z,88.75
2023-04-05T04:05:33.032Z,89.18
2023-04-05T04:08:00.867Z,88.99
2023-04-05T04:10:28.723Z,88.99
2023-04-05T04:13:00.745Z,88.85
2023-04-05T04:15:32.957Z,89.78
2023-04-05T04:18:19.122Z,90.31
2023-04-05T04:21:14.996Z,89.52
2023-04-05T04:24:01.862Z,89.75
2023-04-05T04:26:58.790Z,89.61
2023-04-05T04:29:31.263Z,90.08
2023-04-05T04:32:22.602Z,89.59
2023-04-05T04:35:18.512Z,88.92
2023-04-05T04:38:18.884Z,88.61
2023-04-05T04:41:07.938Z,88.51
2023-04-05T04:43:45.005Z,88.84
2023-04-05T04:46:43.718Z,88.21
2023-04-05T04:49:28.318Z,87.71
2023-04-05T04:51:58.525Z,87.45
2023-04-05T04:54:28.888Z,88.07
2023-04-05T04:56:57.354Z,88.10
2023-04-05T04:59:25.396Z,88.46
2023-04-05T05:01:54.665Z,88.31
2023-04-05T05:04:22.872Z,88.80
2023-04-05T05:06:52.021Z,88.34
2023-04-05T05:09:19.863Z,88.93
2023-04-05T05:11:52.215Z,88.60
2023-04-05T05:14:19.978Z,88.43
2023-04-05T05:16:48.380Z,88.95
2023-04-05T05:19:18.133Z,88.57
2023-04-05T05:21:50.191Z,88.21
2023-04-05T05:24:18.044Z,88.36
2023-04-05T05:26:45.878Z,87.98
2023-04-05T05:29:13.867Z,87.95
2023-04-05T05:31:45.246Z,88.33
2023-04-05T05:34:13.108Z,88.37
2023-04-05T05:36:47.937Z,87.63
2023-04-05T05:39:15.950Z,88.17
2023-04-05T05:41:43.815Z,87.97
2023-04-05T05:44:14.785Z,89.08
2023-04-05T05:46:42.810Z,88.18
2023-04-05T05:49:10.749Z,87.69
2023-04-05T05:51:38.739Z,87.26
2023-04-05T05:54:08.096Z,86.43
2023-04-05T05:56:35.871Z,86.63
2023-04-05T05:59:03.796Z,85.20
2023-04-05T06:01:34.407Z,84.11
2023-04-05T06:04:02.411Z,81.95
2023-04-05T06:06:31.059Z,81.31
2023-04-05T06:08:58.869Z,81.12
2023-04-05T06:11:28.071Z,80.52
2023-04-05T06:13:55.917Z,81.85
2023-04-05T06:16:23.994Z,83.70
2023-04-05T06:18:51.865Z,83.43
2023-04-05T06:21:19.621Z,83.68
2023-04-05T06:23:47.508Z,84.87
2023-04-05T06:26:20.406Z,83.92
2023-04-05T06:28:49.716Z,84.53
2023-04-05T06:31:18.215Z,82.60
2023-04-05T06:33:46.188Z,81.13
2023-04-05T06:36:14.089Z,79.68
2023-04-05T06:38:41.842Z,77.96
2023-04-05T06:41:09.906Z,80.62
2023-04-05T06:43:37.698Z,80.80
2023-04-05T06:46:08.868Z,83.70
2023-04-05T06:48:36.783Z,83.41
2023-04-05T06:51:05.547Z,82.69
2023-04-05T06:53:33.480Z,83.02
2023-04-05T06:56:01.611Z,85.27
2023-04-05T06:58:29.421Z,83.21
2023-04-05T07:00:57.378Z,83.06
2023-04-05T07:03:26.620Z,82.68
2023-04-05T07:05:56.836Z,82.71
2023-04-05T07:08:25.103Z,81.55
2023-04-05T07:10:53.448Z,80.39
2023-04-05T07:13:23.194Z,78.31
2023-04-05T07:15:51.379Z,78.23
2023-04-05T07:18:20.392Z,79.31
2023-04-05T07:20:50.077Z,78.77
2023-04-05T07:23:18.346Z,78.66
2023-04-05T07:25:46.603Z,81.18
2023-04-05T07:28:14.427Z,76.30
2023-04-05T07:30:42.482Z,77.51
2023-04-05T07:33:10.973Z,74.63
2023-04-05T07:35:38.843Z,75.91
2023-04-05T07:38:08.138Z,73.42
2023-04-05T07:40:35.927Z,73.04
2023-04-05T07:43:03.763Z,72.92
2023-04-05T07:45:31.563Z,66.93
2023-04-05T07:47:59.517Z,66.52
2023-04-05T07:50:27.942Z,67.03
2023-04-05T07:52:55.773Z,67.51
2023-04-05T07:55:24.960Z,65.43
2023-04-05T07:57:52.661Z,63.45
2023-04-05T08:00:21.389Z,65.64
2023-04-05T08:02:49.265Z,62.36
2023-04-05T08:05:17.334Z,59.42
2023-04-05T08:07:45.329Z,65.46
2023-04-05T08:10:13.113Z,57.73
2023-04-05T08:12:42.299Z,55.79
2023-04-05T08:15:10.958Z,54.12
2023-04-05T08:17:38.882Z,52.95
2023-04-05T08:20:08.106Z,53.32
2023-04-05T08:22:35.856Z,52.01
2023-04-05T08:25:03.756Z,50.97
2023-04-05T08:27:31.614Z,48.16
2023-04-05T08:30:00.818Z,48.17
2023-04-05T08:32:28.735Z,48.84
2023-04-05T08:34:56.579Z,46.85
2023-04-05T08:37:24.315Z,45.41
2023-04-05T08:39:52.300Z,44.77
2023-04-05T08:42:27.334Z,46.10
2023-04-05T08:44:58.839Z,46.02
2023-04-05T08:47:28.927Z,45.02
2023-04-05T08:49:57.168Z,46.08
2023-04-05T08:52:26.579Z,43.60
2023-04-05T08:54:55.376Z,43.26
2023-04-05T08:57:27.270Z,44.79
2023-04-05T08:59:57.246Z,46.25
2023-04-05T09:02:26.479Z,43.44
2023-04-05T09:04:56.115Z,42.76
2023-04-05T09:07:25.008Z,41.96
2023-04-05T09:09:54.656Z,41.28
2023-04-05T09:12:24.359Z,40.67
2023-04-05T09:14:53.190Z,42.16
2023-04-05T09:17:21.976Z,42.06
2023-04-05T09:19:50.569Z,41.24
2023-04-05T09:22:19.765Z,43.49
2023-04-05T09:24:48.162Z,43.12
2023-04-05T09:27:20.894Z,42.42
2023-04-05T09:29:57.022Z,41.12
2023-04-05T09:32:29.303Z,41.64
2023-04-05T09:35:01.122Z,40.55
2023-04-05T09:37:32.328Z,41.08
2023-04-05T09:40:04.356Z,41.47
2023-04-05T09:42:44.433Z,40.54
2023-04-05T09:45:12.949Z,41.13
2023-04-05T09:47:59.509Z,43.86
2023-04-05T09:50:27.624Z,43.79
2023-04-05T09:53:09.661Z,43.39
2023-04-05T09:55:38.257Z,42.84
2023-04-05T09:58:06.118Z,41.27
2023-04-05T10:00:34.246Z,43.54
2023-04-05T10:03:02.051Z,42.34
2023-04-05T10:05:30.748Z,40.84
2023-04-05T10:07:59.060Z,42.76
2023-04-05T10:10:28.603Z,41.04
2023-04-05T10:12:57.190Z,38.57
2023-04-05T10:15:27.953Z,41.15
2023-04-05T10:18:03.724Z,42.79
2023-04-05T10:20:35.930Z,39.13
2023-04-05T10:23:10.136Z,42.39
2023-04-05T10:25:52.565Z,40.80
2023-04-05T10:28:31.486Z,39.78
2023-04-05T10:31:10.047Z,40.23
2023-04-05T10:33:42.701Z,41.58
2023-04-05T10:36:18.272Z,40.61
2023-04-05T10:39:00.479Z,42.89
2023-04-05T10:41:34.644Z,40.39
2023-04-05T10:44:14.860Z,40.82
2023-04-05T10:46:47.537Z,39.28
2023-04-05T10:49:23.075Z,38.45
2023-04-05T10:51:51.909Z,38.42
2023-04-05T10:54:20.903Z,38.03
2023-04-05T10:56:51.109Z,41.24
2023-04-05T10:59:19.577Z,38.72
2023-04-05T11:01:48.460Z,40.71
2023-04-05T11:04:17.461Z,40.71
2023-04-05T11:06:47.890Z,39.75
2023-04-05T11:09:18.122Z,39.03
2023-04-05T11:11:47.300Z,38.66
2023-04-05T11:14:25.728Z,41.94
2023-04-05T11:16:57.007Z,38.96
2023-04-05T11:19:49.543Z,37.85
2023-04-05T11:22:27.272Z,38.40
2023-04-05T11:24:58.175Z,38.73
2023-04-05T11:27:28.080Z,39.56
2023-04-05T11:29:58.994Z,38.24
2023-04-05T11:32:40.285Z,39.34
2023-04-05T11:35:13.697Z,38.03
2023-04-05T11:38:06.430Z,37.50
2023-04-05T11:40:35.313Z,38.60
2023-04-05T11:43:05.945Z,38.83
2023-04-05T11:45:36.603Z,38.66
2023-04-05T11:48:07.239Z,38.57
2023-04-05T11:50:37.132Z,38.98
2023-04-05T11:53:12.514Z,40.32
2023-04-05T11:55:42.009Z,38.79
2023-04-05T11:58:17.236Z,40.29
2023-04-05T12:00:47.461Z,38.37
2023-04-05T12:03:16.158Z,38.38
2023-04-05T12:05:51.645Z,38.98
2023-04-05T12:08:20.184Z,38.61
2023-04-05T12:10:56.070Z,40.23
2023-04-05T12:13:28.959Z,37.73
2023-04-05T12:16:00.730Z,38.43
2023-04-05T12:18:29.712Z,38.55
2023-04-05T12:20:57.719Z,37.46
2023-04-05T12:23:26.900Z,38.52
2023-04-05T12:25:56.662Z,40.95
2023-04-05T12:28:24.853Z,40.72
2023-04-05T12:30:54.156Z,38.23
2023-04-05T12:33:31.065Z,38.86
2023-04-05T12:35:59.459Z,38.19
2023-04-05T12:38:28.367Z,37.57
2023-04-05T12:41:01.191Z,37.08
2023-04-05T12:43:39.822Z,37.65
2023-04-05T12:46:10.904Z,37.44
2023-04-05T12:48:42.777Z,36.87
2023-04-05T12:51:16.838Z,37.72
2023-04-05T12:53:48.254Z,37.78
2023-04-05T12:56:17.635Z,37.23
2023-04-05T12:58:50.410Z,40.14
2023-04-05T13:01:19.208Z,39.03
2023-04-05T13:03:49.959Z,38.26
2023-04-05T13:06:17.936Z,37.54
2023-04-05T13:08:45.729Z,39.34
2023-04-05T13:11:13.518Z,38.94
2023-04-05T13:13:41.380Z,37.89
2023-04-05T13:16:09.250Z,37.71
2023-04-05T13:18:37.146Z,36.46
2023-04-05T13:21:09.344Z,36.45
2023-04-05T13:23:37.511Z,36.43
2023-04-05T13:26:06.089Z,37.66
2023-04-05T13:28:34.212Z,37.25
2023-04-05T13:31:02.192Z,38.00
2023-04-05T13:33:30.044Z,38.36
2023-04-05T13:35:57.987Z,37.30
2023-04-05T13:38:27.211Z,38.70
2023-04-05T13:40:55.392Z,38.30
2023-04-05T13:43:23.666Z,37.06
2023-04-05T13:45:51.703Z,36.01
2023-04-05T13:48:19.402Z,36.58
2023-04-05T13:50:47.177Z,36.74
2023-04-05T13:53:15.070Z,36.79
2023-04-05T13:55:44.209Z,37.42
2023-04-05T13:58:14.128Z,37.75
2023-04-05T14:00:42.588Z,36.71
2023-04-05T14:03:10.925Z,35.90
2023-04-05T14:05:38.816Z,36.34
2023-04-05T14:08:06.610Z,36.25
2023-04-05T14:10:34.420Z,35.95
2023-04-05T14:13:03.745Z,35.67
2023-04-05T14:15:31.852Z,35.50
2023-04-05T14:17:59.787Z,35.38
2023-04-05T14:20:27.711Z,38.27
2023-04-05T14:22:55.596Z,36.03
2023-04-05T14:25:23.511Z,36.19
2023-04-05T14:27:51.392Z,36.15
2023-04-05T14:30:21.077Z,36.01
2023-04-05T14:32:49.038Z,37.22
2023-04-05T14:35:16.972Z,36.29
2023-04-05T14:37:44.912Z,36.96
2023-04-05T14:40:13.125Z,36.27
2023-04-05T14:42:49.343Z,36.50
2023-04-05T14:45:17.985Z,37.11
2023-04-05T14:47:47.407Z,36.32
2023-04-05T14:50:15.593Z,36.78
2023-04-05T14:52:43.445Z,37.05
2023-04-05T14:55:13.402Z,36.87
2023-04-05T14:57:41.469Z,38.54
2023-04-05T15:00:10.999Z,37.96
2023-04-05T15:02:39.073Z,37.90
2023-04-05T15:05:09.199Z,37.92
2023-04-05T15:07:37.126Z,38.21
2023-04-05T15:10:05.770Z,37.49
2023-04-05T15:12:33.911Z,37.67
2023-04-05T15:15:02.296Z,38.37
2023-04-05T15:17:30.618Z,37.22
2023-04-05T15:19:58.514Z,38.36
2023-04-05T15:22:27.896Z,38.63
2023-04-05T15:24:57.101Z,37.07
2023-04-05T15:27:24.988Z,36.68
2023-04-05T15:29:52.953Z,37.38
2023-04-05T15:32:20.850Z,37.09
2023-04-05T15:34:48.978Z,37.65
2023-04-05T15:37:16.836Z,35.99
2023-04-05T15:39:46.126Z,38.92
2023-04-05T15:42:15.590Z,39.05
2023-04-05T15:44:43.944Z,37.98
2023-04-05T15:47:12.089Z,37.62
2023-04-05T15:49:40.064Z,36.58
2023-04-05T15:52:08.744Z,37.50
2023-04-05T15:54:36.758Z,35.99
2023-04-05T15:57:06.308Z,38.25
2023-04-05T15:59:34.207Z,37.21
2023-04-05T16:02:02.301Z,36.25
2023-04-05T16:04:30.806Z,36.35
2023-04-05T16:06:58.691Z,35.49
2023-04-05T16:09:26.677Z,35.71
2023-04-05T16:11:54.517Z,36.36
2023-04-05T16:14:23.754Z,35.37
2023-04-05T16:16:54.269Z,36.03
2023-04-05T16:19:23.454Z,36.67
2023-04-05T16:21:52.757Z,36.96
2023-04-05T16:24:21.208Z,36.41
2023-04-05T16:26:49.278Z,37.57
2023-04-05T16:29:17.157Z,37.02
2023-04-05T16:31:47.408Z,36.52
2023-04-05T16:34:15.686Z,36.94
2023-04-05T16:36:43.762Z,37.18
2023-04-05T16:39:12.217Z,37.45
2023-04-05T16:41:40.216Z,36.77
2023-04-05T16:44:08.147Z,37.61
2023-04-05T16:46:36.062Z,36.87
2023-04-05T16:49:05.761Z,37.35
2023-04-05T16:51:35.588Z,37.11
2023-04-05T16:54:03.682Z,37.41
2023-04-05T16:56:31.574Z,36.60
2023-04-05T16:58:59.705Z,37.43
2023-04-05T17:01:28.754Z,37.63
2023-04-05T17:03:59.704Z,38.53
2023-04-05T17:06:29.383Z,38.76
2023-04-05T17:08:57.301Z,38.40
2023-04-05T17:11:25.158Z,38.89
2023-04-05T17:13:53.374Z,38.96
2023-04-05T17:16:21.464Z,39.67
2023-04-05T17:18:49.487Z,39.26
2023-04-05T17:21:18.232Z,39.08
2023-04-05T17:23:47.501Z,39.18
2023-04-05T17:26:15.454Z,38.28
2023-04-05T17:28:43.412Z,39.07
2023-04-05T17:31:12.075Z,39.12
2023-04-05T17:33:40.359Z,39.01
2023-04-05T17:36:08.756Z,39.39
2023-04-05T17:38:36.671Z,39.30
2023-04-05T17:41:06.034Z,39.12
2023-04-05T17:43:34.042Z,39.22
2023-04-05T17:46:02.168Z,39.47
2023-04-05T17:48:30.445Z,39.20
2023-04-05T17:50:58.366Z,39.21
2023-04-05T17:53:26.856Z,39.67
2023-04-05T17:55:56.724Z,39.62
2023-04-05T17:58:26.203Z,40.07
2023-04-05T18:00:54.154Z,40.10
2023-04-05T18:03:22.133Z,40.68
2023-04-05T18:05:52.216Z,41.28
2023-04-05T18:08:20.647Z,40.92
2023-04-05T18:10:50.686Z,42.16
2023-04-05T18:13:19.459Z,44.42
2023-04-05T18:15:52.738Z,45.81
2023-04-05T18:18:20.899Z,46.35
2023-04-05T18:20:50.541Z,46.99
2023-04-05T18:23:18.828Z,47.71
2023-04-05T18:25:46.775Z,47.71
2023-04-05T18:28:22.414Z,48.37
2023-04-05T18:30:52.968Z,50.00
2023-04-05T18:33:22.487Z,50.64
2023-04-05T18:35:50.932Z,51.53
2023-04-05T18:38:19.065Z,52.85
2023-04-05T18:40:47.128Z,53.71
2023-04-05T18:43:15.299Z,54.56
2023-04-05T18:45:43.277Z,54.67
2023-04-05T18:48:13.267Z,55.63
2023-04-05T18:50:41.324Z,57.30
2023-04-05T18:53:09.377Z,57.70
2023-04-05T18:55:37.777Z,58.84
2023-04-05T18:58:05.889Z,59.33
2023-04-05T19:00:34.962Z,56.84
2023-04-05T19:03:02.980Z,57.30
2023-04-05T19:05:32.409Z,57.71
2023-04-05T19:08:00.511Z,57.04
2023-04-05T19:10:28.517Z,57.85
2023-04-05T19:12:56.595Z,57.44
2023-04-05T19:15:24.499Z,57.22
2023-04-05T19:17:52.417Z,58.78
2023-04-05T19:20:20.446Z,59.96
2023-04-05T19:22:49.884Z,60.77
2023-04-05T19:25:18.278Z,61.34
2023-04-05T19:27:46.331Z,62.97
2023-04-05T19:30:14.508Z,62.91
2023-04-05T19:32:42.554Z,63.14
2023-04-05T19:35:10.915Z,64.06
2023-04-05T19:37:39.134Z,63.97
2023-04-05T19:40:09.956Z,62.28
2023-04-05T19:42:37.970Z,62.89
2023-04-05T19:45:09.330Z,62.15
2023-04-05T19:47:43.747Z,62.91
2023-04-05T19:50:44.205Z,64.40
2023-04-05T19:53:31.977Z,64.62
2023-04-05T19:56:01.375Z,66.75
2023-04-05T19:58:29.288Z,66.73
2023-04-05T20:00:57.288Z,66.79
2023-04-05T20:03:30.463Z,67.36
2023-04-05T20:06:06.232Z,66.82
2023-04-05T20:08:35.473Z,67.05
2023-04-05T20:11:10.682Z,66.25
2023-04-05T20:13:43.424Z,66.69
2023-04-05T20:16:13.316Z,64.55
2023-04-05T20:18:44.995Z,63.31
2023-04-05T20:21:13.316Z,63.61
2023-04-05T20:23:42.826Z,65.77
2023-04-05T20:26:15.368Z,68.92
2023-04-05T20:28:44.562Z,70.28
2023-04-05T20:31:21.020Z,71.76
2023-04-05T20:33:50.854Z,72.31
2023-04-05T20:36:21.110Z,72.63
2023-04-05T20:38:50.423Z,72.85
2023-04-05T20:41:21.136Z,73.76
2023-04-05T20:43:49.004Z,73.90
2023-04-05T20:46:17.585Z,74.08
2023-04-05T20:48:46.837Z,74.54
2023-04-05T20:51:16.167Z,74.29
2023-04-05T20:53:44.612Z,74.17
2023-04-05T20:56:13.411Z,74.48
2023-04-05T20:58:42.963Z,74.48
2023-04-05T21:01:11.686Z,74.43
2023-04-05T21:03:41.572Z,74.77
2023-04-05T21:06:11.081Z,75.16
2023-04-05T21:08:41.257Z,75.19
2023-04-05T21:11:10.727Z,76.29
2023-04-05T21:13:39.141Z,76.34
2023-04-05T21:16:09.459Z,76.79
2023-04-05T21:18:37.509Z,76.42
2023-04-05T21:21:06.015Z,76.30
2023-04-05T21:23:34.435Z,76.55
2023-04-05T21:26:04.203Z,76.51
2023-04-05T21:28:32.334Z,77.00
2023-04-05T21:31:00.336Z,77.14
2023-04-05T21:33:29.794Z,77.77
2023-04-05T21:35:57.761Z,77.84
2023-04-05T21:38:25.794Z,77.66
2023-04-05T21:40:55.332Z,77.99
2023-04-05T21:43:23.785Z,77.92
2023-04-05T21:45:52.858Z,78.49
2023-04-05T21:48:21.205Z,78.55
2023-04-05T21:50:50.584Z,79.04
2023-04-05T21:53:18.828Z,78.68
2023-04-05T21:55:46.804Z,79.43
2023-04-05T21:58:14.741Z,79.44
2023-04-05T22:00:42.778Z,80.37
2023-04-05T22:03:10.742Z,79.43
2023-04-05T22:09:52.517Z,78.92
2023-04-05T22:12:22.239Z,79.04
2023-04-05T22:14:50.173Z,79.32
2023-04-05T22:17:18.570Z,80.11
2023-04-05T22:19:47.519Z,79.53
2023-04-05T22:22:15.627Z,80.25
2023-04-05T22:24:43.888Z,80.05
2023-04-05T22:27:13.503Z,80.50
2023-04-05T22:29:41.717Z,81.68
2023-04-05T22:32:09.823Z,81.66
2023-04-05T22:34:37.815Z,82.00
2023-04-05T22:37:05.912Z,81.11
2023-04-05T22:39:33.813Z,81.10
2023-04-05T22:42:01.765Z,81.20
2023-04-05T22:44:31.312Z,80.45
2023-04-05T22:46:59.315Z,80.85
2023-04-05T22:49:27.294Z,81.01
2023-04-05T22:51:55.266Z,81.91
2023-04-05T22:54:23.224Z,82.13
2023-04-05T22:56:51.129Z,82.13
2023-04-05T22:59:19.150Z,82.03
2023-04-05T23:01:48.643Z,82.40
2023-04-05T23:04:16.784Z,82.25
2023-04-05T23:06:44.810Z,82.18
2023-04-05T23:09:12.776Z,81.84
2023-04-05T23:11:40.863Z,82.07
2023-04-05T23:14:09.180Z,82.41
2023-04-05T23:16:37.429Z,83.32
2023-04-05T23:19:07.210Z,82.95
2023-04-05T23:21:35.364Z,83.31
2023-04-05T23:24:03.308Z,82.71
2023-04-05T23:26:31.269Z,82.49
2023-04-05T23:28:59.198Z,82.96
2023-04-05T23:31:27.217Z,83.02
2023-04-05T23:33:55.736Z,82.54
2023-04-05T23:36:25.171Z,83.25
2023-04-05T23:38:53.056Z,82.77
2023-04-05T23:41:21.574Z,83.33
2023-04-05T23:43:49.494Z,83.22
2023-04-05T23:46:17.589Z,82.27
2023-04-05T23:48:45.575Z,82.63
2023-04-05T23:51:13.529Z,83.42
2023-04-05T23:53:42.836Z,83.44
2023-04-05T23:56:10.882Z,83.17
2023-04-05T23:58:38.900Z,83.39
